Aiwamaru — JD2602 — position and weather

sailwx.info

Track history (hours):
 
Tides and Currents Weather Stations Pressure Air Temp Water Temp Dewpoint Dewpoint Depression Visibility Wind Speed Wind Dir Waves Ship Positions

Aiwamaru

Last reported at 2014-Jul-29 13:14 UTC. Time now 2014-Jul-30 09:09 UTC.
Position N 34°51' E 139°38'.

Length 64 m; draft 4.8 m.

Type: Tanker. MMSI: 431000508.

Date/timePositionNaut miles runAvg speedWind from/ knotsBaromVisibWave heightAir tempDewpointWater temp
2014-Jul-29 13:14N 34°51' E 139°38'3011.0
2014-Jul-29 10:30N 35°03' E 140°12'19 9.0
2014-Jul-29 08:23N 35°17' E 140°27'910.9
2014-Jul-29 07:31N 35°27' E 140°29'1111.0
2014-Jul-29 06:33N 35°34' E 140°38'23 7.5
2014-Jul-29 03:26N 35°57' E 140°43'4 1.9
2014-Jul-29 01:15N 35°53' E 140°41'0 0.0
2014-Jul-29 00:33N 35°53' E 140°41'5 4.8
2014-Jul-28 23:33N 35°58' E 140°43'1313.1
2014-Jul-28 22:31N 35°47' E 140°53'3612.2
2014-Jul-28 19:32N 35°15' E 140°31'1414.6
2014-Jul-28 18:33N 35°04' E 140°19'1514.9
2014-Jul-28 17:33N 34°57' E 140°04'1413.5
2014-Jul-28 16:33N 34°51' E 139°49'1212.3
2014-Jul-28 15:33N 34°50' E 139°34'  
2014-Jul-25 11:07N 34°50' E 139°42'2810.5
2014-Jul-25 08:28N 35°02' E 140°12'3110.6
2014-Jul-25 05:33N 35°29' E 140°30'1412.0
2014-Jul-25 04:22N 35°37' E 140°45'19 4.7
2014-Jul-25 00:23N 35°55' E 140°42'0 0.0
2014-Jul-24 23:32N 35°55' E 140°42'4 3.8
2014-Jul-24 22:33N 35°58' E 140°45'0 0.2
2014-Jul-24 21:33N 35°57' E 140°45'8 8.2
2014-Jul-24 20:33N 35°51' E 140°51'11 9.7
2014-Jul-24 19:27N 35°40' E 140°55'1010.5
2014-Jul-24 18:27N 35°32' E 140°47'1311.6
2014-Jul-24 17:20N 35°22' E 140°37'912.0
2014-Jul-24 16:33N 35°15' E 140°30'1211.7
2014-Jul-24 15:29N 35°06' E 140°19'1212.7
2014-Jul-24 14:31N 34°59' E 140°07'1412.3
2014-Jul-24 13:21N 34°52' E 139°51'911.7
2014-Jul-24 12:34N 34°59' E 139°43'1313.0
2014-Jul-24 11:33N 35°12' E 139°46'9 8.8
2014-Jul-24 10:33N 35°20' E 139°43'9 9.4
2014-Jul-24 09:33N 35°29' E 139°47'2 2.2
2014-Jul-24 08:33N 35°31' E 139°46'0 0.0
2014-Jul-24 07:33N 35°31' E 139°46'0 0.0
2014-Jul-24 06:33N 35°31' E 139°46'2 1.5
2014-Jul-24 05:33N 35°30' E 139°48'1 1.1
2014-Jul-24 04:33N 35°29' E 139°49'0 0.0
2014-Jul-24 03:33N 35°29' E 139°49'0 0.0
2014-Jul-24 02:33N 35°29' E 139°49'0 0.0
2014-Jul-24 01:33N 35°29' E 139°49'0 0.0
2014-Jul-24 00:33N 35°29' E 139°49'0 0.0
2014-Jul-23 23:33N 35°29' E 139°49'0 0.0
2014-Jul-23 22:33N 35°29' E 139°49'0 0.0
2014-Jul-23 21:33N 35°29' E 139°49'0 0.0
2014-Jul-23 20:33N 35°29' E 139°49'5 4.8
2014-Jul-23 19:33N 35°25' E 139°47'1110.9
2014-Jul-23 18:33N 35°14' E 139°47'1212.0
2014-Jul-23 17:33N 35°02' E 139°44'14 6.5
2014-Jul-23 15:19N 34°55' E 139°60'1010.6
2014-Jul-23 14:20N 35°01' E 140°10'2010.7
2014-Jul-23 12:27N 35°15' E 140°29'3611.6
2014-Jul-23 09:20N 35°44' E 140°55'1112.1
2014-Jul-23 08:25N 35°54' E 140°51'2311.8
2014-Jul-23 06:26N 36°18' E 140°48'  
2014-Jul-20 12:11N 35°16' E 140°31'1311.8
2014-Jul-20 11:05N 35°06' E 140°22'713.1
2014-Jul-20 10:31N 35°02' E 140°14'1712.9
2014-Jul-20 09:14N 34°53' E 139°57'1312.2
2014-Jul-20 08:12N 34°50' E 139°42'  
Track history (hours):
 
Tides and Currents Weather Stations Pressure Air Temp Water Temp Dewpoint Dewpoint Depression Visibility Wind Speed Wind Dir Waves Ship Positions

Aiwamaru

Last reported at 2014-Jul-29 13:14 UTC. Time now 2014-Jul-30 09:09 UTC.
Position N 34°51' E 139°38'.

Length 64 m; draft 4.8 m.

Type: Tanker. MMSI: 431000508.

Date/timePositionNaut miles runAvg speedWind from/ knotsBaromVisibWave heightAir tempDewpointWater temp
2014-Jul-29 13:14N 34°51' E 139°38'3011.0
2014-Jul-29 10:30N 35°03' E 140°12'19 9.0
2014-Jul-29 08:23N 35°17' E 140°27'910.9
2014-Jul-29 07:31N 35°27' E 140°29'1111.0
2014-Jul-29 06:33N 35°34' E 140°38'23 7.5
2014-Jul-29 03:26N 35°57' E 140°43'4 1.9
2014-Jul-29 01:15N 35°53' E 140°41'0 0.0
2014-Jul-29 00:33N 35°53' E 140°41'5 4.8
2014-Jul-28 23:33N 35°58' E 140°43'1313.1
2014-Jul-28 22:31N 35°47' E 140°53'3612.2
2014-Jul-28 19:32N 35°15' E 140°31'1414.6
2014-Jul-28 18:33N 35°04' E 140°19'1514.9
2014-Jul-28 17:33N 34°57' E 140°04'1413.5
2014-Jul-28 16:33N 34°51' E 139°49'1212.3
2014-Jul-28 15:33N 34°50' E 139°34'  
2014-Jul-25 11:07N 34°50' E 139°42'2810.5
2014-Jul-25 08:28N 35°02' E 140°12'3110.6
2014-Jul-25 05:33N 35°29' E 140°30'1412.0
2014-Jul-25 04:22N 35°37' E 140°45'19 4.7
2014-Jul-25 00:23N 35°55' E 140°42'0 0.0
2014-Jul-24 23:32N 35°55' E 140°42'4 3.8
2014-Jul-24 22:33N 35°58' E 140°45'0 0.2
2014-Jul-24 21:33N 35°57' E 140°45'8 8.2
2014-Jul-24 20:33N 35°51' E 140°51'11 9.7
2014-Jul-24 19:27N 35°40' E 140°55'1010.5
2014-Jul-24 18:27N 35°32' E 140°47'1311.6
2014-Jul-24 17:20N 35°22' E 140°37'912.0
2014-Jul-24 16:33N 35°15' E 140°30'1211.7
2014-Jul-24 15:29N 35°06' E 140°19'1212.7
2014-Jul-24 14:31N 34°59' E 140°07'1412.3
2014-Jul-24 13:21N 34°52' E 139°51'911.7
2014-Jul-24 12:34N 34°59' E 139°43'1313.0
2014-Jul-24 11:33N 35°12' E 139°46'9 8.8
2014-Jul-24 10:33N 35°20' E 139°43'9 9.4
2014-Jul-24 09:33N 35°29' E 139°47'2 2.2
2014-Jul-24 08:33N 35°31' E 139°46'0 0.0
2014-Jul-24 07:33N 35°31' E 139°46'0 0.0
2014-Jul-24 06:33N 35°31' E 139°46'2 1.5
2014-Jul-24 05:33N 35°30' E 139°48'1 1.1
2014-Jul-24 04:33N 35°29' E 139°49'0 0.0
2014-Jul-24 03:33N 35°29' E 139°49'0 0.0
2014-Jul-24 02:33N 35°29' E 139°49'0 0.0
2014-Jul-24 01:33N 35°29' E 139°49'0 0.0
2014-Jul-24 00:33N 35°29' E 139°49'0 0.0
2014-Jul-23 23:33N 35°29' E 139°49'0 0.0
2014-Jul-23 22:33N 35°29' E 139°49'0 0.0
2014-Jul-23 21:33N 35°29' E 139°49'0 0.0
2014-Jul-23 20:33N 35°29' E 139°49'5 4.8
2014-Jul-23 19:33N 35°25' E 139°47'1110.9
2014-Jul-23 18:33N 35°14' E 139°47'1212.0
2014-Jul-23 17:33N 35°02' E 139°44'14 6.5
2014-Jul-23 15:19N 34°55' E 139°60'1010.6
2014-Jul-23 14:20N 35°01' E 140°10'2010.7
2014-Jul-23 12:27N 35°15' E 140°29'3611.6
2014-Jul-23 09:20N 35°44' E 140°55'1112.1
2014-Jul-23 08:25N 35°54' E 140°51'2311.8
2014-Jul-23 06:26N 36°18' E 140°48'  
2014-Jul-20 12:11N 35°16' E 140°31'1311.8
2014-Jul-20 11:05N 35°06' E 140°22'713.1
2014-Jul-20 10:31N 35°02' E 140°14'1712.9
2014-Jul-20 09:14N 34°53' E 139°57'1312.2
2014-Jul-20 08:12N 34°50' E 139°42'  

Dump ship's entire track history